Airfield :
LOGIN :

Register | Disclaimer

   EN    FR    IT 

 










Legend :    VFR   Marginal VFR   IFR   Intensive IFR   Very Intensive IFR
Visi :
Ceiling :
>= 8 km
>= 3000ft
5 to 8 km
1000 to 3000 ft
1500m to 5 km
500 to 1000 ft
800 to 1500m
200 to 500 ft
< 800m
< 200 ft
Symbols :   Thunderstorms  Fog  Heavy snow  Heavy precipitations  Wind > 20 kt
SIGMETs :     Misc.  Thunderstorms  Icing  Turbulence  Mountain Waves  Volcanic Ashes






- Airport Elevation : 1267 ft
- IATA code : CUF


LIMZ - Cuneo Levaldigi

CURRENT METAR :
  • 261120Z AUTO 19006KT 7000 NCD 04/02 Q1027

EXPIRED METARs :
  • 261050Z AUTO 20006KT 6000 NCD 03/02 Q1027
  • 261020Z AUTO 22003KT 190V250 5000 BR NCD 01/01 Q1028
  • 260950Z AUTO VRB02KT 4500 BR NCD M00/M00 Q1028
  • 260920Z AUTO VRB01KT 4100 BR NCD M02/M02 Q1028
  • 260850Z AUTO 20003KT 3700 BR ///////// M03/M03 Q1028

TAF TAF LIMZ
Valid from the 26 at 12:00 until the 27 at 12:00 UTC


261100Z 2612/2712 VRB05KT 6000 NSC
BECMG 2616/2618 2000 BR
BECMG 2620/2622 0300 FZFG BKN004
BECMG 2708/2710 2000 BR
BECMG 2710/2712 6000



MET'MAP, your aeronautical weather chart ! - Copyright ORBIFLY December 2007 - Disclaimer

ORBIFLY MET'MAP TEAM :

Programming & Development : Alexandra Zaïnal
Original concept : Baudouin d'Aumeries
Technical & hardware support : Manuel Goepfert
Assistance : Marc-Olivier Méhu

Contact : metmap@orbifly.com




SOURCES & CREDITS :

   NOAA